KMOD

Modesto City-Co-Harry Sham Field Airport

Modesto, California, USA
METAR KMOD 190605Z AUTO 30012KT 10SM -RA SCT009 OVC034 12/11 A3006 RMK AO2 P0000 T01220111
Observed Flight Rules
Jan-19 @ 06:05 UTC (54 minutes ago) Visual Flight Rules
Wind Visibility Clouds Conditions
300° at 12 knots 10 miles
  • Scattered at 900' AGL
  • Overcast at 3,400' AGL
  • Light Rain
Temperatures Readings Precipitation
Current 12°C / 54°F
Dewpoint 11°C / 52°F
Humidity 94%
Altimeter 30.06" Hg
Pressure 1018 hPa
Elevation 29
Current Rain 0.005
METAR KMOD 190605Z AUTO 30012KT 10SM -RA SCT009 OVC034 12/11 A3006 RMK AO2 P0000 T01220111
Observed Flight Rules
Jan-19 @ 06:05 UTC
(54 minutes ago)
VFR
Wind Visibility
300° at 12 knots 10 miles
Clouds
  • Scattered at 900' AGL
  • Overcast at 3,400' AGL
Conditions
  • Light Rain
Temperature Dewpoint
12°C / 54°F 11°C / 52°F
Humidity Altimeter Pressure
94% 30.06" Hg 1018 hPa
Current Rain
0.005